sensor_id;sensor_type;location;lat;lon;timestamp;P1;durP1;ratioP1;P2;durP2;ratioP2
61358;SDS011;47228;46.762;23.598;2022-11-10T00:02:25;20.00;;;14.00;;
61358;SDS011;47228;46.762;23.598;2022-11-10T00:04:53;26.90;;;15.30;;
61358;SDS011;47228;46.762;23.598;2022-11-10T00:07:24;23.40;;;15.10;;
61358;SDS011;47228;46.762;23.598;2022-11-10T00:09:53;23.00;;;14.30;;
61358;SDS011;47228;46.762;23.598;2022-11-10T00:12:21;24.40;;;14.90;;
61358;SDS011;47228;46.762;23.598;2022-11-10T00:14:49;22.30;;;14.10;;
61358;SDS011;47228;46.762;23.598;2022-11-10T00:17:36;23.40;;;14.80;;
61358;SDS011;47228;46.762;23.598;2022-11-10T00:20:05;22.80;;;14.10;;
61358;SDS011;47228;46.762;23.598;2022-11-10T00:22:33;24.70;;;14.60;;
61358;SDS011;47228;46.762;23.598;2022-11-10T00:25:03;22.80;;;14.80;;
61358;SDS011;47228;46.762;23.598;2022-11-10T00:27:32;23.40;;;15.60;;
61358;SDS011;47228;46.762;23.598;2022-11-10T00:30:00;27.00;;;15.00;;
61358;SDS011;47228;46.762;23.598;2022-11-10T00:32:28;24.00;;;15.10;;
61358;SDS011;47228;46.762;23.598;2022-11-10T00:34:56;20.80;;;13.90;;
61358;SDS011;47228;46.762;23.598;2022-11-10T00:37:24;20.70;;;13.80;;
61358;SDS011;47228;46.762;23.598;2022-11-10T00:39:52;22.60;;;14.70;;
61358;SDS011;47228;46.762;23.598;2022-11-10T00:42:20;25.90;;;15.50;;
61358;SDS011;47228;46.762;23.598;2022-11-10T00:44:48;23.00;;;15.30;;
61358;SDS011;47228;46.762;23.598;2022-11-10T00:47:16;24.80;;;14.90;;
61358;SDS011;47228;46.762;23.598;2022-11-10T00:49:44;23.70;;;14.90;;
61358;SDS011;47228;46.762;23.598;2022-11-10T00:52:12;27.90;;;15.50;;
61358;SDS011;47228;46.762;23.598;2022-11-10T00:54:40;24.30;;;17.10;;
61358;SDS011;47228;46.762;23.598;2022-11-10T00:57:08;28.20;;;15.10;;
61358;SDS011;47228;46.762;23.598;2022-11-10T00:59:36;23.40;;;15.20;;
61358;SDS011;47228;46.762;23.598;2022-11-10T01:02:03;22.50;;;14.60;;
61358;SDS011;47228;46.762;23.598;2022-11-10T01:04:31;28.40;;;18.10;;
61358;SDS011;47228;46.762;23.598;2022-11-10T01:07:11;24.90;;;16.20;;
61358;SDS011;47228;46.762;23.598;2022-11-10T01:09:39;31.50;;;17.70;;
61358;SDS011;47228;46.762;23.598;2022-11-10T01:12:07;27.90;;;17.40;;
61358;SDS011;47228;46.762;23.598;2022-11-10T01:14:35;27.00;;;16.40;;
61358;SDS011;47228;46.762;23.598;2022-11-10T01:17:02;26.60;;;16.40;;
61358;SDS011;47228;46.762;23.598;2022-11-10T01:19:30;27.80;;;17.10;;
61358;SDS011;47228;46.762;23.598;2022-11-10T01:21:58;33.60;;;16.40;;
61358;SDS011;47228;46.762;23.598;2022-11-10T01:24:27;28.00;;;17.00;;
61358;SDS011;47228;46.762;23.598;2022-11-10T01:26:55;29.10;;;16.50;;
61358;SDS011;47228;46.762;23.598;2022-11-10T01:29:23;25.20;;;15.10;;
61358;SDS011;47228;46.762;23.598;2022-11-10T01:31:51;29.00;;;17.10;;
61358;SDS011;47228;46.762;23.598;2022-11-10T01:34:19;28.20;;;17.40;;
61358;SDS011;47228;46.762;23.598;2022-11-10T01:36:47;28.40;;;17.60;;
61358;SDS011;47228;46.762;23.598;2022-11-10T01:39:15;30.30;;;18.30;;
61358;SDS011;47228;46.762;23.598;2022-11-10T01:41:43;36.50;;;18.80;;
61358;SDS011;47228;46.762;23.598;2022-11-10T01:44:12;30.70;;;18.90;;
61358;SDS011;47228;46.762;23.598;2022-11-10T01:46:40;30.90;;;16.00;;
61358;SDS011;47228;46.762;23.598;2022-11-10T01:49:08;26.10;;;15.90;;
61358;SDS011;47228;46.762;23.598;2022-11-10T01:51:38;22.50;;;14.20;;
61358;SDS011;47228;46.762;23.598;2022-11-10T01:54:24;24.80;;;16.20;;
61358;SDS011;47228;46.762;23.598;2022-11-10T01:56:56;22.20;;;14.30;;
61358;SDS011;47228;46.762;23.598;2022-11-10T01:59:28;20.50;;;13.50;;
61358;SDS011;47228;46.762;23.598;2022-11-10T02:02:01;22.90;;;15.30;;
61358;SDS011;47228;46.762;23.598;2022-11-10T02:04:38;25.90;;;15.50;;
61358;SDS011;47228;46.762;23.598;2022-11-10T02:07:09;23.70;;;15.10;;
61358;SDS011;47228;46.762;23.598;2022-11-10T02:09:37;25.80;;;15.70;;
61358;SDS011;47228;46.762;23.598;2022-11-10T02:12:05;24.00;;;15.00;;
61358;SDS011;47228;46.762;23.598;2022-11-10T02:14:33;23.50;;;14.60;;
61358;SDS011;47228;46.762;23.598;2022-11-10T02:17:01;19.60;;;12.70;;
61358;SDS011;47228;46.762;23.598;2022-11-10T02:19:29;21.00;;;13.60;;
61358;SDS011;47228;46.762;23.598;2022-11-10T02:21:57;22.40;;;13.40;;
61358;SDS011;47228;46.762;23.598;2022-11-10T02:24:25;24.40;;;14.60;;
61358;SDS011;47228;46.762;23.598;2022-11-10T02:26:53;21.60;;;13.90;;
61358;SDS011;47228;46.762;23.598;2022-11-10T02:29:23;20.90;;;14.10;;
61358;SDS011;47228;46.762;23.598;2022-11-10T02:31:52;23.20;;;14.20;;
61358;SDS011;47228;46.762;23.598;2022-11-10T02:34:20;20.50;;;13.80;;
61358;SDS011;47228;46.762;23.598;2022-11-10T02:36:48;20.00;;;13.50;;
61358;SDS011;47228;46.762;23.598;2022-11-10T02:39:16;21.90;;;14.10;;
61358;SDS011;47228;46.762;23.598;2022-11-10T02:41:44;21.10;;;13.30;;
61358;SDS011;47228;46.762;23.598;2022-11-10T02:44:13;23.60;;;15.60;;
61358;SDS011;47228;46.762;23.598;2022-11-10T02:46:41;22.50;;;14.10;;
61358;SDS011;47228;46.762;23.598;2022-11-10T02:49:09;21.90;;;13.70;;
61358;SDS011;47228;46.762;23.598;2022-11-10T02:51:37;22.20;;;13.70;;
61358;SDS011;47228;46.762;23.598;2022-11-10T02:54:05;19.80;;;13.00;;
61358;SDS011;47228;46.762;23.598;2022-11-10T02:56:33;20.30;;;13.60;;
61358;SDS011;47228;46.762;23.598;2022-11-10T02:59:02;21.00;;;13.30;;
61358;SDS011;47228;46.762;23.598;2022-11-10T03:01:30;18.90;;;12.20;;
61358;SDS011;47228;46.762;23.598;2022-11-10T03:03:58;16.60;;;11.90;;
61358;SDS011;47228;46.762;23.598;2022-11-10T03:06:26;18.10;;;12.30;;
61358;SDS011;47228;46.762;23.598;2022-11-10T03:08:54;19.60;;;12.70;;
61358;SDS011;47228;46.762;23.598;2022-11-10T03:11:22;20.70;;;12.20;;
61358;SDS011;47228;46.762;23.598;2022-11-10T03:13:58;21.60;;;12.00;;
61358;SDS011;47228;46.762;23.598;2022-11-10T03:16:29;18.30;;;12.10;;
61358;SDS011;47228;46.762;23.598;2022-11-10T03:18:57;19.10;;;12.70;;
61358;SDS011;47228;46.762;23.598;2022-11-10T03:21:26;18.90;;;12.50;;
61358;SDS011;47228;46.762;23.598;2022-11-10T03:23:53;26.70;;;13.70;;
61358;SDS011;47228;46.762;23.598;2022-11-10T03:26:21;23.30;;;15.50;;
61358;SDS011;47228;46.762;23.598;2022-11-10T03:28:49;21.90;;;13.40;;
61358;SDS011;47228;46.762;23.598;2022-11-10T03:31:17;16.90;;;11.50;;
61358;SDS011;47228;46.762;23.598;2022-11-10T03:33:45;20.00;;;11.70;;
61358;SDS011;47228;46.762;23.598;2022-11-10T03:36:13;17.50;;;11.40;;
61358;SDS011;47228;46.762;23.598;2022-11-10T03:38:41;17.40;;;10.40;;
61358;SDS011;47228;46.762;23.598;2022-11-10T03:41:09;20.30;;;12.90;;
61358;SDS011;47228;46.762;23.598;2022-11-10T03:43:47;21.10;;;12.90;;
61358;SDS011;47228;46.762;23.598;2022-11-10T03:46:16;19.20;;;11.60;;
61358;SDS011;47228;46.762;23.598;2022-11-10T03:48:44;17.80;;;11.90;;
61358;SDS011;47228;46.762;23.598;2022-11-10T03:51:20;17.70;;;11.20;;
61358;SDS011;47228;46.762;23.598;2022-11-10T03:53:49;18.20;;;11.40;;
61358;SDS011;47228;46.762;23.598;2022-11-10T03:56:17;14.70;;;10.30;;
61358;SDS011;47228;46.762;23.598;2022-11-10T03:58:45;16.40;;;11.70;;
61358;SDS011;47228;46.762;23.598;2022-11-10T04:01:13;16.80;;;11.80;;
61358;SDS011;47228;46.762;23.598;2022-11-10T04:03:41;17.20;;;11.10;;
61358;SDS011;47228;46.762;23.598;2022-11-10T04:06:15;15.10;;;10.30;;
61358;SDS011;47228;46.762;23.598;2022-11-10T04:09:02;15.20;;;10.20;;
61358;SDS011;47228;46.762;23.598;2022-11-10T04:11:32;19.10;;;11.30;;
61358;SDS011;47228;46.762;23.598;2022-11-10T04:14:19;19.20;;;12.40;;
61358;SDS011;47228;46.762;23.598;2022-11-10T04:17:05;20.50;;;13.20;;
61358;SDS011;47228;46.762;23.598;2022-11-10T04:19:33;20.70;;;13.40;;
61358;SDS011;47228;46.762;23.598;2022-11-10T04:22:01;22.70;;;12.90;;
61358;SDS011;47228;46.762;23.598;2022-11-10T04:24:29;22.70;;;14.20;;
61358;SDS011;47228;46.762;23.598;2022-11-10T04:26:57;26.00;;;14.50;;
61358;SDS011;47228;46.762;23.598;2022-11-10T04:29:25;24.10;;;15.40;;
61358;SDS011;47228;46.762;23.598;2022-11-10T04:31:53;27.00;;;14.70;;
61358;SDS011;47228;46.762;23.598;2022-11-10T04:34:21;22.00;;;14.60;;
61358;SDS011;47228;46.762;23.598;2022-11-10T04:36:51;28.20;;;15.20;;
61358;SDS011;47228;46.762;23.598;2022-11-10T04:39:19;24.90;;;14.80;;
61358;SDS011;47228;46.762;23.598;2022-11-10T04:41:47;24.20;;;14.70;;
61358;SDS011;47228;46.762;23.598;2022-11-10T04:44:15;22.50;;;13.60;;
61358;SDS011;47228;46.762;23.598;2022-11-10T04:46:43;23.60;;;13.60;;
61358;SDS011;47228;46.762;23.598;2022-11-10T04:49:11;23.90;;;15.20;;
61358;SDS011;47228;46.762;23.598;2022-11-10T04:51:39;26.40;;;15.80;;
61358;SDS011;47228;46.762;23.598;2022-11-10T04:54:09;22.10;;;13.70;;
61358;SDS011;47228;46.762;23.598;2022-11-10T04:56:38;25.60;;;14.70;;
61358;SDS011;47228;46.762;23.598;2022-11-10T04:59:06;21.20;;;13.10;;
61358;SDS011;47228;46.762;23.598;2022-11-10T05:01:35;24.70;;;12.40;;
61358;SDS011;47228;46.762;23.598;2022-11-10T05:04:02;22.00;;;14.00;;
61358;SDS011;47228;46.762;23.598;2022-11-10T05:06:32;28.40;;;13.30;;
61358;SDS011;47228;46.762;23.598;2022-11-10T05:09:00;26.90;;;15.00;;
61358;SDS011;47228;46.762;23.598;2022-11-10T05:11:28;27.20;;;15.10;;
61358;SDS011;47228;46.762;23.598;2022-11-10T05:13:56;22.00;;;13.00;;
61358;SDS011;47228;46.762;23.598;2022-11-10T05:16:24;28.40;;;14.60;;
61358;SDS011;47228;46.762;23.598;2022-11-10T05:18:52;33.40;;;17.10;;
61358;SDS011;47228;46.762;23.598;2022-11-10T05:21:20;37.50;;;18.20;;
61358;SDS011;47228;46.762;23.598;2022-11-10T05:23:48;43.10;;;18.60;;
61358;SDS011;47228;46.762;23.598;2022-11-10T05:26:16;38.70;;;15.80;;
61358;SDS011;47228;46.762;23.598;2022-11-10T05:28:44;30.20;;;14.80;;
61358;SDS011;47228;46.762;23.598;2022-11-10T05:31:12;32.00;;;17.90;;
61358;SDS011;47228;46.762;23.598;2022-11-10T05:33:40;32.80;;;19.00;;
61358;SDS011;47228;46.762;23.598;2022-11-10T05:36:08;40.80;;;19.40;;
61358;SDS011;47228;46.762;23.598;2022-11-10T05:38:36;24.90;;;14.70;;
61358;SDS011;47228;46.762;23.598;2022-11-10T05:41:10;21.70;;;12.60;;
61358;SDS011;47228;46.762;23.598;2022-11-10T05:43:38;17.60;;;11.20;;
61358;SDS011;47228;46.762;23.598;2022-11-10T05:46:06;19.70;;;11.60;;
61358;SDS011;47228;46.762;23.598;2022-11-10T05:48:34;17.00;;;10.60;;
61358;SDS011;47228;46.762;23.598;2022-11-10T05:51:02;19.20;;;11.30;;
61358;SDS011;47228;46.762;23.598;2022-11-10T05:53:33;21.60;;;12.20;;
61358;SDS011;47228;46.762;23.598;2022-11-10T05:56:01;26.70;;;14.20;;
61358;SDS011;47228;46.762;23.598;2022-11-10T05:58:29;26.70;;;15.30;;
61358;SDS011;47228;46.762;23.598;2022-11-10T06:00:57;28.60;;;14.90;;
61358;SDS011;47228;46.762;23.598;2022-11-10T06:03:25;29.00;;;15.40;;
61358;SDS011;47228;46.762;23.598;2022-11-10T06:05:54;30.00;;;18.20;;
61358;SDS011;47228;46.762;23.598;2022-11-10T06:08:23;32.10;;;19.40;;
61358;SDS011;47228;46.762;23.598;2022-11-10T06:10:51;36.30;;;18.80;;
61358;SDS011;47228;46.762;23.598;2022-11-10T06:13:20;37.90;;;18.40;;
61358;SDS011;47228;46.762;23.598;2022-11-10T06:15:48;38.80;;;20.20;;
61358;SDS011;47228;46.762;23.598;2022-11-10T06:18:17;36.40;;;20.90;;
61358;SDS011;47228;46.762;23.598;2022-11-10T06:20:45;23.20;;;15.20;;
61358;SDS011;47228;46.762;23.598;2022-11-10T06:23:14;24.90;;;14.30;;
61358;SDS011;47228;46.762;23.598;2022-11-10T06:25:42;29.20;;;15.70;;
61358;SDS011;47228;46.762;23.598;2022-11-10T06:28:11;31.50;;;19.00;;
61358;SDS011;47228;46.762;23.598;2022-11-10T06:30:41;30.50;;;18.30;;
61358;SDS011;47228;46.762;23.598;2022-11-10T06:33:09;25.20;;;15.80;;
61358;SDS011;47228;46.762;23.598;2022-11-10T06:35:37;26.70;;;16.70;;
61358;SDS011;47228;46.762;23.598;2022-11-10T06:38:06;21.80;;;14.50;;
61358;SDS011;47228;46.762;23.598;2022-11-10T06:40:37;21.20;;;13.60;;
61358;SDS011;47228;46.762;23.598;2022-11-10T06:43:04;20.00;;;13.20;;
61358;SDS011;47228;46.762;23.598;2022-11-10T06:45:32;23.50;;;14.20;;
61358;SDS011;47228;46.762;23.598;2022-11-10T06:48:05;17.90;;;12.00;;
61358;SDS011;47228;46.762;23.598;2022-11-10T06:50:34;20.20;;;12.70;;
61358;SDS011;47228;46.762;23.598;2022-11-10T06:53:02;18.20;;;12.30;;
61358;SDS011;47228;46.762;23.598;2022-11-10T06:55:30;21.30;;;14.40;;
61358;SDS011;47228;46.762;23.598;2022-11-10T06:57:59;22.60;;;14.00;;
61358;SDS011;47228;46.762;23.598;2022-11-10T07:00:27;21.80;;;13.50;;
61358;SDS011;47228;46.762;23.598;2022-11-10T07:03:06;21.90;;;13.40;;
61358;SDS011;47228;46.762;23.598;2022-11-10T07:05:37;21.50;;;12.90;;
61358;SDS011;47228;46.762;23.598;2022-11-10T07:08:09;20.40;;;12.80;;
61358;SDS011;47228;46.762;23.598;2022-11-10T07:10:49;20.60;;;12.30;;
61358;SDS011;47228;46.762;23.598;2022-11-10T07:13:19;21.40;;;13.40;;
61358;SDS011;47228;46.762;23.598;2022-11-10T07:15:49;17.90;;;11.60;;
61358;SDS011;47228;46.762;23.598;2022-11-10T07:18:17;18.90;;;12.70;;
61358;SDS011;47228;46.762;23.598;2022-11-10T07:20:45;20.20;;;12.40;;
61358;SDS011;47228;46.762;23.598;2022-11-10T07:23:13;20.70;;;13.10;;
61358;SDS011;47228;46.762;23.598;2022-11-10T07:25:41;20.10;;;12.90;;
61358;SDS011;47228;46.762;23.598;2022-11-10T07:28:09;20.90;;;13.30;;
61358;SDS011;47228;46.762;23.598;2022-11-10T07:30:37;21.50;;;13.80;;
61358;SDS011;47228;46.762;23.598;2022-11-10T07:33:11;20.50;;;12.40;;
61358;SDS011;47228;46.762;23.598;2022-11-10T07:35:41;20.30;;;13.00;;
61358;SDS011;47228;46.762;23.598;2022-11-10T07:38:10;17.80;;;11.60;;
61358;SDS011;47228;46.762;23.598;2022-11-10T07:40:39;19.30;;;12.20;;
61358;SDS011;47228;46.762;23.598;2022-11-10T07:43:07;27.40;;;17.40;;
61358;SDS011;47228;46.762;23.598;2022-11-10T07:45:35;31.70;;;21.40;;
61358;SDS011;47228;46.762;23.598;2022-11-10T07:48:04;40.10;;;23.50;;
61358;SDS011;47228;46.762;23.598;2022-11-10T07:50:33;39.00;;;23.20;;
61358;SDS011;47228;46.762;23.598;2022-11-10T07:53:11;36.10;;;21.10;;
61358;SDS011;47228;46.762;23.598;2022-11-10T07:55:41;30.10;;;18.30;;
61358;SDS011;47228;46.762;23.598;2022-11-10T07:58:12;32.70;;;15.60;;
61358;SDS011;47228;46.762;23.598;2022-11-10T08:00:42;29.60;;;16.10;;
61358;SDS011;47228;46.762;23.598;2022-11-10T08:03:13;29.70;;;15.40;;
61358;SDS011;47228;46.762;23.598;2022-11-10T08:05:43;39.10;;;16.20;;
61358;SDS011;47228;46.762;23.598;2022-11-10T08:08:11;37.70;;;17.30;;
61358;SDS011;47228;46.762;23.598;2022-11-10T08:10:40;42.10;;;18.60;;
61358;SDS011;47228;46.762;23.598;2022-11-10T08:13:09;29.80;;;13.70;;
61358;SDS011;47228;46.762;23.598;2022-11-10T08:15:39;26.10;;;13.00;;
61358;SDS011;47228;46.762;23.598;2022-11-10T08:20:44;18.10;;;10.60;;
61358;SDS011;47228;46.762;23.598;2022-11-10T08:23:12;14.60;;;9.30;;
61358;SDS011;47228;46.762;23.598;2022-11-10T08:25:41;17.30;;;10.20;;
61358;SDS011;47228;46.762;23.598;2022-11-10T08:28:13;15.20;;;9.90;;
61358;SDS011;47228;46.762;23.598;2022-11-10T08:33:12;16.50;;;10.80;;
61358;SDS011;47228;46.762;23.598;2022-11-10T08:35:42;16.50;;;9.80;;
61358;SDS011;47228;46.762;23.598;2022-11-10T08:38:15;22.80;;;11.30;;
61358;SDS011;47228;46.762;23.598;2022-11-10T08:40:45;20.00;;;9.60;;
61358;SDS011;47228;46.762;23.598;2022-11-10T08:43:14;18.60;;;10.10;;
61358;SDS011;47228;46.762;23.598;2022-11-10T08:45:43;14.30;;;8.80;;
61358;SDS011;47228;46.762;23.598;2022-11-10T08:48:18;13.20;;;9.30;;
61358;SDS011;47228;46.762;23.598;2022-11-10T08:50:47;12.50;;;8.60;;
61358;SDS011;47228;46.762;23.598;2022-11-10T08:53:20;14.30;;;9.30;;
61358;SDS011;47228;46.762;23.598;2022-11-10T08:55:50;15.10;;;9.40;;
61358;SDS011;47228;46.762;23.598;2022-11-10T08:58:20;13.70;;;9.00;;
61358;SDS011;47228;46.762;23.598;2022-11-10T09:00:50;13.60;;;9.40;;
61358;SDS011;47228;46.762;23.598;2022-11-10T09:03:22;14.10;;;9.30;;
61358;SDS011;47228;46.762;23.598;2022-11-10T09:05:52;15.50;;;9.50;;
61358;SDS011;47228;46.762;23.598;2022-11-10T09:08:25;14.30;;;9.50;;
61358;SDS011;47228;46.762;23.598;2022-11-10T09:10:53;14.20;;;9.60;;
61358;SDS011;47228;46.762;23.598;2022-11-10T09:13:21;15.80;;;11.20;;
61358;SDS011;47228;46.762;23.598;2022-11-10T09:16:00;17.90;;;11.80;;
61358;SDS011;47228;46.762;23.598;2022-11-10T09:18:29;18.30;;;12.50;;
61358;SDS011;47228;46.762;23.598;2022-11-10T09:20:57;27.80;;;13.30;;
61358;SDS011;47228;46.762;23.598;2022-11-10T09:23:25;20.10;;;13.10;;
61358;SDS011;47228;46.762;23.598;2022-11-10T09:25:54;19.40;;;12.20;;
61358;SDS011;47228;46.762;23.598;2022-11-10T09:28:23;19.50;;;11.90;;
61358;SDS011;47228;46.762;23.598;2022-11-10T09:30:51;18.60;;;12.80;;
61358;SDS011;47228;46.762;23.598;2022-11-10T09:33:19;23.20;;;12.80;;
61358;SDS011;47228;46.762;23.598;2022-11-10T09:35:48;20.80;;;14.40;;
61358;SDS011;47228;46.762;23.598;2022-11-10T09:38:17;21.10;;;14.30;;
61358;SDS011;47228;46.762;23.598;2022-11-10T09:43:35;23.80;;;16.40;;
61358;SDS011;47228;46.762;23.598;2022-11-10T09:46:09;27.00;;;18.00;;
61358;SDS011;47228;46.762;23.598;2022-11-10T09:48:52;29.30;;;18.20;;
61358;SDS011;47228;46.762;23.598;2022-11-10T09:51:33;26.60;;;18.00;;
61358;SDS011;47228;46.762;23.598;2022-11-10T09:54:14;26.40;;;18.10;;
61358;SDS011;47228;46.762;23.598;2022-11-10T09:57:00;29.50;;;19.40;;
61358;SDS011;47228;46.762;23.598;2022-11-10T09:59:32;27.70;;;19.50;;
61358;SDS011;47228;46.762;23.598;2022-11-10T10:07:23;28.40;;;18.30;;
61358;SDS011;47228;46.762;23.598;2022-11-10T10:15:28;23.90;;;17.40;;
61358;SDS011;47228;46.762;23.598;2022-11-10T10:26:20;24.10;;;17.70;;
61358;SDS011;47228;46.762;23.598;2022-11-10T10:28:54;25.80;;;18.90;;
61358;SDS011;47228;46.762;23.598;2022-11-10T10:31:33;25.30;;;18.50;;
61358;SDS011;47228;46.762;23.598;2022-11-10T10:34:18;22.60;;;17.40;;
61358;SDS011;47228;46.762;23.598;2022-11-10T10:36:49;26.80;;;17.50;;
61358;SDS011;47228;46.762;23.598;2022-11-10T10:42:14;23.50;;;15.10;;
61358;SDS011;47228;46.762;23.598;2022-11-10T10:47:39;21.30;;;15.50;;
61358;SDS011;47228;46.762;23.598;2022-11-10T10:50:28;22.10;;;15.60;;
61358;SDS011;47228;46.762;23.598;2022-11-10T10:55:56;24.50;;;16.90;;
61358;SDS011;47228;46.762;23.598;2022-11-10T10:58:28;27.30;;;17.80;;
61358;SDS011;47228;46.762;23.598;2022-11-10T11:01:01;25.60;;;17.90;;
61358;SDS011;47228;46.762;23.598;2022-11-10T11:03:40;32.60;;;18.30;;
61358;SDS011;47228;46.762;23.598;2022-11-10T11:06:22;31.00;;;20.10;;
61358;SDS011;47228;46.762;23.598;2022-11-10T11:09:08;27.40;;;19.70;;
61358;SDS011;47228;46.762;23.598;2022-11-10T11:11:44;28.10;;;19.90;;
61358;SDS011;47228;46.762;23.598;2022-11-10T11:14:25;34.20;;;19.50;;
61358;SDS011;47228;46.762;23.598;2022-11-10T11:17:03;31.20;;;20.10;;
61358;SDS011;47228;46.762;23.598;2022-11-10T11:19:40;33.70;;;20.30;;
61358;SDS011;47228;46.762;23.598;2022-11-10T11:34:16;36.70;;;24.70;;
61358;SDS011;47228;46.762;23.598;2022-11-10T11:37:08;36.80;;;23.70;;
61358;SDS011;47228;46.762;23.598;2022-11-10T11:39:58;33.00;;;22.50;;
61358;SDS011;47228;46.762;23.598;2022-11-10T11:51:04;34.60;;;23.40;;
61358;SDS011;47228;46.762;23.598;2022-11-10T11:56:35;31.20;;;21.30;;
61358;SDS011;47228;46.762;23.598;2022-11-10T12:08:12;29.00;;;19.80;;
61358;SDS011;47228;46.762;23.598;2022-11-10T12:16:30;31.20;;;19.70;;
61358;SDS011;47228;46.762;23.598;2022-11-10T12:28:12;35.70;;;19.80;;
61358;SDS011;47228;46.762;23.598;2022-11-10T12:30:49;30.00;;;21.30;;
61358;SDS011;47228;46.762;23.598;2022-11-10T12:36:11;29.10;;;21.00;;
61358;SDS011;47228;46.762;23.598;2022-11-10T12:38:54;32.00;;;21.20;;
61358;SDS011;47228;46.762;23.598;2022-11-10T12:41:29;34.50;;;20.90;;
61358;SDS011;47228;46.762;23.598;2022-11-10T12:46:41;26.10;;;16.10;;
61358;SDS011;47228;46.762;23.598;2022-11-10T12:49:27;24.70;;;16.00;;
61358;SDS011;47228;46.762;23.598;2022-11-10T12:52:20;24.90;;;16.10;;
61358;SDS011;47228;46.762;23.598;2022-11-10T12:54:54;19.90;;;14.30;;
61358;SDS011;47228;46.762;23.598;2022-11-10T12:57:22;21.60;;;13.70;;
61358;SDS011;47228;46.762;23.598;2022-11-10T12:59:54;21.00;;;14.10;;
61358;SDS011;47228;46.762;23.598;2022-11-10T13:07:45;27.40;;;15.70;;
61358;SDS011;47228;46.762;23.598;2022-11-10T14:11:33;28.70;;;17.40;;
61358;SDS011;47228;46.762;23.598;2022-11-10T14:14:17;28.40;;;16.90;;
61358;SDS011;47228;46.762;23.598;2022-11-10T14:16:56;22.30;;;14.70;;
61358;SDS011;47228;46.762;23.598;2022-11-10T14:19:38;25.10;;;15.00;;
61358;SDS011;47228;46.762;23.598;2022-11-10T14:27:50;24.90;;;13.90;;
61358;SDS011;47228;46.762;23.598;2022-11-10T14:33:00;22.20;;;14.30;;
61358;SDS011;47228;46.762;23.598;2022-11-10T14:35:44;21.70;;;14.30;;
61358;SDS011;47228;46.762;23.598;2022-11-10T14:38:23;26.80;;;14.60;;
61358;SDS011;47228;46.762;23.598;2022-11-10T14:40:55;24.80;;;14.90;;
61358;SDS011;47228;46.762;23.598;2022-11-10T14:43:42;21.60;;;14.60;;
61358;SDS011;47228;46.762;23.598;2022-11-10T14:46:11;22.40;;;14.60;;
61358;SDS011;47228;46.762;23.598;2022-11-10T14:48:41;23.80;;;15.70;;
61358;SDS011;47228;46.762;23.598;2022-11-10T14:51:14;24.60;;;16.50;;
61358;SDS011;47228;46.762;23.598;2022-11-10T14:53:46;23.60;;;15.60;;
61358;SDS011;47228;46.762;23.598;2022-11-10T14:56:16;23.80;;;15.40;;
61358;SDS011;47228;46.762;23.598;2022-11-10T14:58:47;26.80;;;15.20;;
61358;SDS011;47228;46.762;23.598;2022-11-10T15:01:21;24.20;;;15.60;;
61358;SDS011;47228;46.762;23.598;2022-11-10T15:03:55;24.80;;;16.10;;
61358;SDS011;47228;46.762;23.598;2022-11-10T15:06:23;26.30;;;16.20;;
61358;SDS011;47228;46.762;23.598;2022-11-10T15:08:52;24.70;;;15.60;;
61358;SDS011;47228;46.762;23.598;2022-11-10T15:11:34;21.60;;;14.60;;
61358;SDS011;47228;46.762;23.598;2022-11-10T15:16:59;20.90;;;14.40;;
61358;SDS011;47228;46.762;23.598;2022-11-10T15:19:29;23.30;;;15.30;;
61358;SDS011;47228;46.762;23.598;2022-11-10T15:24:40;21.20;;;13.40;;
61358;SDS011;47228;46.762;23.598;2022-11-10T15:27:25;23.60;;;15.60;;
61358;SDS011;47228;46.762;23.598;2022-11-10T15:29:59;23.50;;;15.90;;
61358;SDS011;47228;46.762;23.598;2022-11-10T15:32:39;24.90;;;15.70;;
61358;SDS011;47228;46.762;23.598;2022-11-10T15:40:42;28.00;;;16.10;;
61358;SDS011;47228;46.762;23.598;2022-11-10T15:45:56;25.60;;;16.20;;
61358;SDS011;47228;46.762;23.598;2022-11-10T15:48:28;25.90;;;17.40;;
61358;SDS011;47228;46.762;23.598;2022-11-10T15:51:13;25.50;;;16.20;;
61358;SDS011;47228;46.762;23.598;2022-11-10T15:53:52;23.80;;;16.30;;
61358;SDS011;47228;46.762;23.598;2022-11-10T15:56:22;22.80;;;15.60;;
61358;SDS011;47228;46.762;23.598;2022-11-10T15:58:51;24.40;;;15.20;;
61358;SDS011;47228;46.762;23.598;2022-11-10T16:01:27;25.20;;;15.30;;
61358;SDS011;47228;46.762;23.598;2022-11-10T16:03:56;30.20;;;16.30;;
61358;SDS011;47228;46.762;23.598;2022-11-10T16:06:24;22.70;;;15.20;;
61358;SDS011;47228;46.762;23.598;2022-11-10T16:08:54;23.70;;;15.80;;
61358;SDS011;47228;46.762;23.598;2022-11-10T16:11:21;25.60;;;16.00;;
61358;SDS011;47228;46.762;23.598;2022-11-10T16:13:50;22.10;;;15.60;;
61358;SDS011;47228;46.762;23.598;2022-11-10T16:16:20;29.20;;;18.30;;
61358;SDS011;47228;46.762;23.598;2022-11-10T16:18:50;27.00;;;17.20;;
61358;SDS011;47228;46.762;23.598;2022-11-10T16:21:19;32.40;;;19.80;;
61358;SDS011;47228;46.762;23.598;2022-11-10T16:23:49;34.30;;;20.20;;
61358;SDS011;47228;46.762;23.598;2022-11-10T16:26:19;32.50;;;20.00;;
61358;SDS011;47228;46.762;23.598;2022-11-10T16:28:50;32.90;;;19.10;;
61358;SDS011;47228;46.762;23.598;2022-11-10T16:31:18;29.80;;;18.50;;
61358;SDS011;47228;46.762;23.598;2022-11-10T16:33:50;36.70;;;20.00;;
61358;SDS011;47228;46.762;23.598;2022-11-10T16:36:21;32.30;;;20.30;;
61358;SDS011;47228;46.762;23.598;2022-11-10T16:38:52;30.60;;;18.80;;
61358;SDS011;47228;46.762;23.598;2022-11-10T16:41:21;31.00;;;19.40;;
61358;SDS011;47228;46.762;23.598;2022-11-10T16:43:49;29.60;;;18.60;;
61358;SDS011;47228;46.762;23.598;2022-11-10T16:46:23;29.20;;;19.10;;
61358;SDS011;47228;46.762;23.598;2022-11-10T16:48:54;30.80;;;19.70;;
61358;SDS011;47228;46.762;23.598;2022-11-10T16:51:26;36.10;;;20.30;;
61358;SDS011;47228;46.762;23.598;2022-11-10T16:54:00;34.70;;;22.10;;
61358;SDS011;47228;46.762;23.598;2022-11-10T16:56:27;36.90;;;22.60;;
61358;SDS011;47228;46.762;23.598;2022-11-10T16:58:55;36.60;;;20.10;;
61358;SDS011;47228;46.762;23.598;2022-11-10T17:01:25;31.00;;;20.80;;
61358;SDS011;47228;46.762;23.598;2022-11-10T17:04:00;40.10;;;21.00;;
61358;SDS011;47228;46.762;23.598;2022-11-10T17:06:33;34.00;;;20.80;;
61358;SDS011;47228;46.762;23.598;2022-11-10T17:09:17;32.30;;;20.90;;
61358;SDS011;47228;46.762;23.598;2022-11-10T17:11:48;31.40;;;20.70;;
61358;SDS011;47228;46.762;23.598;2022-11-10T17:14:16;37.20;;;21.20;;
61358;SDS011;47228;46.762;23.598;2022-11-10T17:16:44;33.50;;;21.20;;
61358;SDS011;47228;46.762;23.598;2022-11-10T17:19:22;36.40;;;23.10;;
61358;SDS011;47228;46.762;23.598;2022-11-10T17:21:52;37.50;;;24.50;;
61358;SDS011;47228;46.762;23.598;2022-11-10T17:24:22;38.80;;;24.00;;
61358;SDS011;47228;46.762;23.598;2022-11-10T17:26:50;36.40;;;24.60;;
61358;SDS011;47228;46.762;23.598;2022-11-10T17:29:18;41.60;;;25.60;;